Layton City
, Layton
Last Weather Update:8/30/2011 11:00:00 PM
Date
ETo
ETc
Rain
Irrigation
Req
Temp
Max
Temp
Min
Temp
Avg
Avg RH
Avg Wind
Avg Solar
inches
inches
incehs
inches
F
F
F
%
%
watts/m2
7/1/2011 0.00" 0.00" 0.00" 0.00" 71.5° 65.8° 69.2° 49.4% 1.1 MPH 0.0w/m2
7/2/2011 0.00" 0.00" 0.00" 0.00" 73.3° 63.7° 68.7° 50.1% 2.5 MPH 0.0w/m2
7/3/2011 0.00" 0.00" 0.00" 0.00" 74.1° 66.2° 70.6° 47.8% 1.9 MPH 0.0w/m2
7/4/2011 0.00" 0.00" 0.00" 0.00" 80.0° 71.8° 75.8° 39.9% 2.4 MPH 0.0w/m2
7/5/2011 0.13" 0.11" 0.00" 0.11" 87.8° 69.4° 76.0° 47.8% 2.8 MPH 134.1w/m2
7/6/2011 0.00" 0.00" 0.00" 0.00" 72.8° 69.4° 71.1° 59.0% 4.0 MPH 0.0w/m2
7/7/2011 0.13" 0.11" 0.13" 0.00" 87.5° 66.5° 73.5° 59.2% 2.6 MPH 141.1w/m2
7/8/2011 0.17" 0.14" 0.05" 0.10" 84.9° 63.5° 72.3° 64.3% 2.1 MPH 230.2w/m2
7/9/2011 0.23" 0.19" 0.11" 0.11" 87.6° 60.9° 72.6° 55.9% 4.1 MPH 314.2w/m2
7/10/2011 0.01" 0.00" 0.10" -0.08" 75.5° 64.9° 68.0° 64.2% 6.1 MPH 0.0w/m2
7/11/2011 0.25" 0.21" 0.05" 0.17" 89.7° 61.7° 73.7° 54.4% 3.0 MPH 296.8w/m2
7/12/2011 0.18" 0.15" 0.04" 0.12" 88.4° 63.8° 75.0° 51.1% 3.3 MPH 242.0w/m2
7/13/2011 0.00" 0.00" 0.00" 0.00" 77.5° 73.9° 76.1° 42.0% 3.9 MPH 0.0w/m2
7/14/2011 0.28" 0.23" 0.02" 0.22" 86.4° 62.6° 75.2° 38.2% 5.0 MPH 324.2w/m2
7/15/2011 0.25" 0.22" 0.00" 0.22" 87.9° 60.0° 75.5° 30.0% 2.9 MPH 350.6w/m2
7/16/2011 0.27" 0.23" 0.00" 0.23" 89.1° 57.8° 76.0° 31.7% 3.6 MPH 370.2w/m2
7/17/2011 0.00" 0.00" 0.00" 0.00" 79.5° 71.2° 74.2° 30.3% 1.3 MPH 0.0w/m2
7/18/2011 0.00" 0.00" 0.00" 0.00" 78.8° 70.7° 75.7° 34.3% 2.5 MPH 0.0w/m2
7/19/2011 0.00" 0.00" 0.00" 0.00" 80.1° 73.3° 76.7° 50.0% 1.3 MPH 0.0w/m2
7/20/2011 0.00" 0.00" 0.00" 0.00" 77.1° 73.4° 75.9° 40.1% 3.7 MPH 0.0w/m2
7/21/2011 0.24" 0.20" 0.03" 0.18" 91.0° 60.7° 75.6° 39.5% 2.0 MPH 316.0w/m2
7/22/2011 0.24" 0.21" 0.04" 0.18" 92.6° 60.6° 77.8° 29.5% 1.8 MPH 360.1w/m2
7/23/2011 0.00" 0.00" 0.00" 0.00" 79.0° 72.0° 75.0° 36.2% 4.5 MPH 0.0w/m2
7/24/2011 0.00" 0.00" 0.00" 0.00" 73.1° 67.9° 71.2° 43.4% 3.1 MPH 0.0w/m2
7/25/2011 0.13" 0.11" 0.00" 0.11" 85.5° 65.1° 75.6° 42.4% 3.2 MPH 105.6w/m2
7/26/2011 0.00" 0.00" 0.00" 0.00" 76.4° 70.0° 72.8° 59.9% 5.4 MPH 0.0w/m2
7/27/2011 0.24" 0.21" 0.00" 0.21" 87.9° 65.6° 75.3° 47.6% 3.5 MPH 307.8w/m2
7/28/2011 0.23" 0.21" 0.00" 0.21" 89.5° 63.4° 76.8° 44.4% 2.4 MPH 328.5w/m2
7/29/2011 0.23" 0.21" 0.00" 0.21" 93.7° 63.4° 78.9° 37.5% 1.8 MPH 339.3w/m2
7/30/2011 0.00" 0.00" 0.00" 0.00" 79.2° 73.8° 77.1° 38.3% 1.6 MPH 0.0w/m2
7/31/2011 0.00" 0.00" 0.00" 0.00" 76.6° 73.4° 75.5° 48.5% 1.0 MPH 0.0w/m2
Totals: 3.22" 2.75" 0.57" 2.30" 93.7° 57.8° 74.3° 45.4% 2.9 MPH 134.2w/m2